createdAt,value
2017-11-24T00:02:15.901Z,4.73
2017-11-24T00:04:44.775Z,3.90
2017-11-24T00:07:13.639Z,4.60
2017-11-24T00:09:42.531Z,5.50
2017-11-24T00:12:11.393Z,4.50
2017-11-24T00:14:40.271Z,5.30
2017-11-24T00:17:09.134Z,5.07
2017-11-24T00:19:38.001Z,5.60
2017-11-24T00:22:06.905Z,6.23
2017-11-24T00:24:35.767Z,5.57
2017-11-24T00:27:04.621Z,5.03
2017-11-24T00:29:33.521Z,4.07
2017-11-24T00:32:02.394Z,3.90
2017-11-24T00:34:31.266Z,5.60
2017-11-24T00:37:00.159Z,14.40
2017-11-24T00:39:29.022Z,5.70
2017-11-24T00:41:57.886Z,4.07
2017-11-24T00:44:26.786Z,3.83
2017-11-24T00:47:01.409Z,5.23
2017-11-24T00:49:30.296Z,3.87
2017-11-24T00:51:59.160Z,4.30
2017-11-24T00:54:28.016Z,7.87
2017-11-24T00:56:56.911Z,4.33
2017-11-24T00:59:25.770Z,4.07
2017-11-24T01:01:54.629Z,6.00
2017-11-24T01:04:23.514Z,6.80
2017-11-24T01:06:52.376Z,3.40
2017-11-24T01:09:21.263Z,4.40
2017-11-24T01:11:50.122Z,3.73
2017-11-24T01:14:19.010Z,3.83
2017-11-24T01:16:47.873Z,4.37
2017-11-24T01:19:16.739Z,4.10
2017-11-24T01:21:45.621Z,4.93
2017-11-24T01:24:14.490Z,5.53
2017-11-24T01:26:43.350Z,3.83
2017-11-24T01:29:12.220Z,6.50
2017-11-24T01:31:41.080Z,6.57
2017-11-24T01:34:09.991Z,5.63
2017-11-24T01:36:38.880Z,3.87
2017-11-24T01:39:07.737Z,5.00
2017-11-24T01:41:36.596Z,4.23
2017-11-24T01:44:05.481Z,3.50
2017-11-24T01:46:34.337Z,3.53
2017-11-24T01:49:03.195Z,4.33
2017-11-24T01:51:32.072Z,6.23
2017-11-24T01:54:00.938Z,6.17
2017-11-24T01:56:29.794Z,3.80
2017-11-24T01:58:58.679Z,5.20
2017-11-24T02:01:30.375Z,4.03
2017-11-24T02:03:59.261Z,5.00
2017-11-24T02:06:28.121Z,6.13
2017-11-24T02:08:56.985Z,4.90
2017-11-24T02:11:25.876Z,6.50
2017-11-24T02:13:54.727Z,4.73
2017-11-24T02:16:23.589Z,5.77
2017-11-24T02:18:52.472Z,3.60
2017-11-24T02:21:21.331Z,3.63
2017-11-24T02:23:50.214Z,5.00
2017-11-24T02:26:19.106Z,4.33
2017-11-24T02:28:47.974Z,5.47
2017-11-24T02:31:16.857Z,3.77
2017-11-24T02:33:45.763Z,4.33
2017-11-24T02:36:14.643Z,3.40
2017-11-24T02:38:43.503Z,3.57
2017-11-24T02:41:12.385Z,4.30
2017-11-24T02:43:41.254Z,4.63
2017-11-24T02:46:10.128Z,5.57
2017-11-24T02:48:39.033Z,4.63
2017-11-24T02:51:07.925Z,4.50
2017-11-24T02:53:36.802Z,4.57
2017-11-24T02:56:05.674Z,5.23
2017-11-24T02:58:34.556Z,5.30
2017-11-24T03:01:03.430Z,4.87
2017-11-24T03:03:32.421Z,3.80
2017-11-24T03:06:01.323Z,3.43
2017-11-24T03:08:30.191Z,4.93
2017-11-24T03:10:59.050Z,4.00
2017-11-24T03:13:27.934Z,3.70
2017-11-24T03:15:56.819Z,4.60
2017-11-24T03:18:25.715Z,4.47
2017-11-24T03:20:54.579Z,3.23
2017-11-24T03:23:23.437Z,4.00
2017-11-24T03:25:52.323Z,5.60
2017-11-24T03:28:21.181Z,4.20
2017-11-24T03:30:50.087Z,6.17
2017-11-24T03:33:18.946Z,4.00
2017-11-24T03:35:47.800Z,4.50
2017-11-24T03:38:16.693Z,4.63
2017-11-24T03:40:45.550Z,4.93
2017-11-24T03:43:19.818Z,4.77
2017-11-24T03:45:53.285Z,3.70
2017-11-24T03:48:22.182Z,4.23
2017-11-24T03:50:51.049Z,5.70
2017-11-24T03:53:19.902Z,4.90
2017-11-24T03:55:48.784Z,5.40
2017-11-24T03:58:17.643Z,4.00
2017-11-24T04:00:46.501Z,3.93
2017-11-24T04:03:15.389Z,4.63
2017-11-24T04:05:44.238Z,4.03
2017-11-24T04:08:13.105Z,4.10
2017-11-24T04:10:41.999Z,3.67
2017-11-24T04:13:10.855Z,4.87
2017-11-24T04:15:39.724Z,3.10
2017-11-24T04:18:08.634Z,4.50
2017-11-24T04:20:37.503Z,4.80
2017-11-24T04:23:06.385Z,5.07
2017-11-24T04:25:35.274Z,6.60
2017-11-24T04:28:04.148Z,7.13
2017-11-24T04:30:33.053Z,4.53
2017-11-24T04:33:01.915Z,5.73
2017-11-24T04:35:30.804Z,5.43
2017-11-24T04:37:59.720Z,5.70
2017-11-24T04:40:28.610Z,7.00
2017-11-24T04:42:57.519Z,4.27
2017-11-24T04:45:26.386Z,4.77
2017-11-24T04:47:55.249Z,4.40
2017-11-24T04:50:24.152Z,6.17
2017-11-24T04:52:53.024Z,3.27
2017-11-24T04:55:21.898Z,5.83
2017-11-24T04:57:50.812Z,5.30
2017-11-24T05:00:19.707Z,5.07
2017-11-24T05:02:48.575Z,8.00
2017-11-24T05:05:17.457Z,5.50
2017-11-24T05:07:46.336Z,5.37
2017-11-24T05:10:15.206Z,4.03
2017-11-24T05:12:44.094Z,4.80
2017-11-24T05:15:12.989Z,4.37
2017-11-24T05:17:41.852Z,5.43
2017-11-24T05:20:10.714Z,3.53
2017-11-24T05:22:39.616Z,3.93
2017-11-24T05:25:08.477Z,4.57
2017-11-24T05:27:37.341Z,3.33
2017-11-24T05:30:06.234Z,4.13
2017-11-24T05:32:35.146Z,4.20
2017-11-24T05:35:04.013Z,6.53
2017-11-24T05:37:32.878Z,4.07
2017-11-24T05:40:01.797Z,4.50
2017-11-24T05:42:30.666Z,4.60
2017-11-24T05:44:59.539Z,4.83
2017-11-24T05:47:28.435Z,4.60
2017-11-24T05:49:57.315Z,3.80
2017-11-24T05:52:26.174Z,5.20
2017-11-24T05:54:55.074Z,4.70
2017-11-24T05:57:23.946Z,3.73
2017-11-24T05:59:52.818Z,3.73
2017-11-24T06:02:21.725Z,7.33
2017-11-24T06:04:50.597Z,5.40
2017-11-24T06:07:19.468Z,5.57
2017-11-24T06:09:48.365Z,5.63
2017-11-24T06:12:17.241Z,3.50
2017-11-24T06:14:46.125Z,5.13
2017-11-24T06:17:15.026Z,3.90
2017-11-24T06:19:43.897Z,5.63
2017-11-24T06:22:12.766Z,6.33
2017-11-24T06:24:41.676Z,4.10
2017-11-24T06:27:10.536Z,5.27
2017-11-24T06:29:39.397Z,3.63
2017-11-24T06:32:08.280Z,3.83
2017-11-24T06:34:37.145Z,4.37
2017-11-24T06:37:06.042Z,3.83
2017-11-24T06:39:34.908Z,5.40
2017-11-24T06:42:03.763Z,4.53
2017-11-24T06:44:32.667Z,4.93
2017-11-24T06:47:01.567Z,7.20
2017-11-24T06:49:30.425Z,3.53
2017-11-24T06:51:59.297Z,4.43
2017-11-24T06:54:28.189Z,6.07
2017-11-24T06:56:57.048Z,5.40
2017-11-24T06:59:25.901Z,5.80
2017-11-24T07:01:54.813Z,4.57
2017-11-24T07:04:23.681Z,5.73
2017-11-24T07:06:52.569Z,4.43
2017-11-24T07:09:21.448Z,5.33
2017-11-24T07:11:50.302Z,9.43
2017-11-24T07:14:19.211Z,5.47
2017-11-24T07:16:48.065Z,5.43
2017-11-24T07:19:16.939Z,5.70
2017-11-24T07:21:45.836Z,3.80
2017-11-24T07:24:14.713Z,4.43
2017-11-24T07:26:43.587Z,4.30
2017-11-24T07:29:12.487Z,4.70
2017-11-24T07:31:41.362Z,5.40
2017-11-24T07:34:10.246Z,7.20
2017-11-24T07:36:39.149Z,4.80
2017-11-24T07:39:08.024Z,5.33
2017-11-24T07:41:36.932Z,4.10
2017-11-24T07:44:05.820Z,4.10
2017-11-24T07:46:34.677Z,4.97
2017-11-24T07:49:03.542Z,6.90
2017-11-24T07:51:32.432Z,4.77
2017-11-24T07:54:01.292Z,6.10
2017-11-24T07:56:30.148Z,3.90
2017-11-24T07:58:59.047Z,6.13
2017-11-24T08:01:27.902Z,7.13
2017-11-24T08:03:56.764Z,5.13
2017-11-24T08:06:25.657Z,8.23
2017-11-24T08:08:54.522Z,4.30
2017-11-24T08:11:23.384Z,4.60
2017-11-24T08:13:52.304Z,5.97
2017-11-24T08:16:21.206Z,4.90
2017-11-24T08:18:50.065Z,5.47
2017-11-24T08:21:18.989Z,5.73
2017-11-24T08:23:47.868Z,3.97
2017-11-24T08:26:16.741Z,7.07
2017-11-24T08:28:45.653Z,4.90
2017-11-24T08:31:14.546Z,4.77
2017-11-24T08:33:43.417Z,8.27
2017-11-24T08:36:12.310Z,4.63
2017-11-24T08:38:41.193Z,4.50
2017-11-24T08:41:10.067Z,4.67
2017-11-24T08:43:38.952Z,5.93
2017-11-24T08:46:07.813Z,8.63
2017-11-24T08:48:42.505Z,5.33
2017-11-24T08:51:11.359Z,6.50
2017-11-24T08:53:40.218Z,5.50
2017-11-24T08:56:09.150Z,5.90
2017-11-24T08:58:38.018Z,6.50
2017-11-24T09:01:06.877Z,7.90
2017-11-24T09:03:35.780Z,7.73
2017-11-24T09:06:04.654Z,7.87
2017-11-24T09:08:33.514Z,6.17
2017-11-24T09:11:02.393Z,6.33
2017-11-24T09:13:31.271Z,4.43
2017-11-24T09:16:00.198Z,5.80
2017-11-24T09:18:29.041Z,11.93
2017-11-24T09:20:57.906Z,4.23
2017-11-24T09:23:26.809Z,5.30
2017-11-24T09:25:55.682Z,9.33
2017-11-24T09:28:24.549Z,4.63
2017-11-24T09:30:53.444Z,7.30
2017-11-24T09:33:22.302Z,6.60
2017-11-24T09:35:51.168Z,4.70
2017-11-24T09:38:20.058Z,8.13
2017-11-24T09:40:48.934Z,6.57
2017-11-24T09:43:17.802Z,4.50
2017-11-24T09:45:46.685Z,3.90
2017-11-24T09:48:15.565Z,5.90
2017-11-24T09:50:44.435Z,6.57
2017-11-24T09:53:13.330Z,4.23
2017-11-24T09:55:42.199Z,4.27
2017-11-24T09:58:11.068Z,3.87
2017-11-24T10:00:39.966Z,4.80
2017-11-24T10:03:08.830Z,4.83
2017-11-24T10:05:37.699Z,4.40
2017-11-24T10:08:06.588Z,6.17
2017-11-24T10:10:35.451Z,4.00
2017-11-24T10:13:04.322Z,7.33
2017-11-24T10:15:33.226Z,4.83
2017-11-24T10:18:02.092Z,6.53
2017-11-24T10:20:30.957Z,4.73
2017-11-24T10:22:59.838Z,3.43
2017-11-24T10:25:28.693Z,3.40
2017-11-24T10:27:57.582Z,4.30
2017-11-24T10:30:26.469Z,9.37
2017-11-24T10:32:55.362Z,4.13
2017-11-24T10:35:24.252Z,7.17
2017-11-24T10:37:53.146Z,3.50
2017-11-24T10:40:22.018Z,4.20
2017-11-24T10:42:51.758Z,6.37
2017-11-24T10:45:20.768Z,3.70
2017-11-24T10:47:49.712Z,6.23
2017-11-24T10:50:18.666Z,4.00
2017-11-24T10:52:47.539Z,5.90
2017-11-24T10:55:16.400Z,6.60
2017-11-24T10:57:45.314Z,6.23
2017-11-24T11:00:14.195Z,5.47
2017-11-24T11:02:43.061Z,3.10
2017-11-24T11:05:11.946Z,5.90
2017-11-24T11:07:40.813Z,6.40
2017-11-24T11:10:09.697Z,3.93
2017-11-24T11:12:38.574Z,4.07
2017-11-24T11:15:07.507Z,3.83
2017-11-24T11:17:36.367Z,3.23
2017-11-24T11:20:05.216Z,4.73
2017-11-24T11:22:34.133Z,4.00
2017-11-24T11:25:03.018Z,5.53
2017-11-24T11:27:31.906Z,5.70
2017-11-24T11:30:00.826Z,5.27
2017-11-24T11:32:29.688Z,5.00
2017-11-24T11:34:58.597Z,7.83
2017-11-24T11:37:27.506Z,7.20
2017-11-24T11:39:56.418Z,5.60
2017-11-24T11:42:25.306Z,4.67
2017-11-24T11:44:54.232Z,3.50
2017-11-24T11:47:23.101Z,4.10
2017-11-24T11:49:51.984Z,7.93
2017-11-24T11:52:21.134Z,3.00
2017-11-24T11:54:50.054Z,4.70
2017-11-24T11:57:19.028Z,6.53
2017-11-24T11:59:47.977Z,5.13
2017-11-24T12:02:16.990Z,7.63
2017-11-24T12:04:45.859Z,8.30
2017-11-24T12:07:14.865Z,5.70
2017-11-24T12:09:43.794Z,5.33
2017-11-24T12:12:12.748Z,3.13
2017-11-24T12:14:41.646Z,3.80
2017-11-24T12:17:10.519Z,13.37
2017-11-24T12:19:39.398Z,3.73
2017-11-24T12:22:08.306Z,3.10
2017-11-24T12:24:37.185Z,4.47
2017-11-24T12:27:06.073Z,4.50
2017-11-24T12:29:34.958Z,6.37
2017-11-24T12:32:03.825Z,4.93
2017-11-24T12:34:32.747Z,3.43
2017-11-24T12:37:01.643Z,6.00
2017-11-24T12:39:30.518Z,6.93
2017-11-24T12:41:59.379Z,6.10
2017-11-24T12:44:28.265Z,4.33
2017-11-24T12:46:57.126Z,2.60
2017-11-24T12:49:26.039Z,5.53
2017-11-24T12:51:54.897Z,4.57
2017-11-24T12:54:23.774Z,3.40
2017-11-24T12:56:52.675Z,5.47
2017-11-24T12:59:21.549Z,2.70
2017-11-24T13:01:50.486Z,3.50
2017-11-24T13:04:20.161Z,4.80
2017-11-24T13:06:49.058Z,9.40
2017-11-24T13:09:17.959Z,10.80
2017-11-24T13:11:46.838Z,5.20
2017-11-24T13:14:15.740Z,3.97
2017-11-24T13:16:44.750Z,9.17
2017-11-24T13:19:13.641Z,5.50
2017-11-24T13:21:42.557Z,4.93
2017-11-24T13:24:11.471Z,3.33
2017-11-24T13:26:40.371Z,3.10
2017-11-24T13:29:09.310Z,7.53
2017-11-24T13:31:38.220Z,2.87
2017-11-24T13:34:07.105Z,3.97
2017-11-24T13:36:36.041Z,2.70
2017-11-24T13:39:04.915Z,7.00
2017-11-24T13:41:33.789Z,5.73
2017-11-24T13:44:02.753Z,4.10
2017-11-24T13:46:31.654Z,5.00
2017-11-24T13:49:00.631Z,3.97
2017-11-24T13:51:29.550Z,3.83
2017-11-24T13:53:58.401Z,4.53
2017-11-24T13:56:27.302Z,4.23
2017-11-24T13:58:56.173Z,4.90
2017-11-24T14:01:25.039Z,3.77
2017-11-24T14:03:53.937Z,7.40
2017-11-24T14:06:22.829Z,6.27
2017-11-24T14:08:51.787Z,6.00
2017-11-24T14:11:20.830Z,5.03
2017-11-24T14:13:49.747Z,3.77
2017-11-24T14:16:18.641Z,7.47
2017-11-24T14:18:47.534Z,3.87
2017-11-24T14:21:16.390Z,4.10
2017-11-24T14:23:45.256Z,5.60
2017-11-24T14:26:14.150Z,5.30
2017-11-24T14:28:43.030Z,7.23
2017-11-24T14:31:11.934Z,9.63
2017-11-24T14:33:40.800Z,7.50
2017-11-24T14:36:09.661Z,8.37
2017-11-24T14:38:38.553Z,6.33
2017-11-24T14:41:07.405Z,4.10
2017-11-24T14:43:36.258Z,6.87
2017-11-24T14:46:05.133Z,5.53
2017-11-24T14:48:34.042Z,7.23
2017-11-24T14:51:02.932Z,5.93
2017-11-24T14:53:31.821Z,9.27
2017-11-24T14:56:00.686Z,5.00
2017-11-24T14:58:29.563Z,8.37
2017-11-24T15:00:58.483Z,5.87
2017-11-24T15:03:27.346Z,6.03
2017-11-24T15:05:56.221Z,8.33
2017-11-24T15:08:25.109Z,8.10
2017-11-24T15:10:53.980Z,7.63
2017-11-24T15:13:22.849Z,6.93
2017-11-24T15:15:51.738Z,15.13
2017-11-24T15:18:20.601Z,9.83
2017-11-24T15:20:49.494Z,9.33
2017-11-24T15:23:18.376Z,8.27
2017-11-24T15:25:47.252Z,7.60
2017-11-24T15:28:16.240Z,6.50
2017-11-24T15:30:45.188Z,6.30
2017-11-24T15:33:14.063Z,8.50
2017-11-24T15:35:43.020Z,8.80
2017-11-24T15:38:11.905Z,8.50
2017-11-24T15:40:41.052Z,6.80
2017-11-24T15:43:10.063Z,8.60
2017-11-24T15:45:38.968Z,7.83
2017-11-24T15:48:07.923Z,8.97
2017-11-24T15:50:36.852Z,5.63
2017-11-24T15:53:05.777Z,8.63
2017-11-24T15:55:34.706Z,7.90
2017-11-24T15:58:03.560Z,4.93
2017-11-24T16:00:32.437Z,8.07
2017-11-24T16:03:01.357Z,11.43
2017-11-24T16:05:30.215Z,7.60
2017-11-24T16:07:59.166Z,7.03
2017-11-24T16:10:28.105Z,7.17
2017-11-24T16:12:56.963Z,7.73
2017-11-24T16:15:25.931Z,7.43
2017-11-24T16:17:54.814Z,6.17
2017-11-24T16:20:23.708Z,7.10
2017-11-24T16:22:52.650Z,5.77
2017-11-24T16:25:21.608Z,7.00
2017-11-24T16:27:50.529Z,6.97
2017-11-24T16:30:19.425Z,7.80
2017-11-24T16:32:48.285Z,5.33
2017-11-24T16:35:17.269Z,7.70
2017-11-24T16:37:46.181Z,7.10
2017-11-24T16:40:15.046Z,5.13
2017-11-24T16:42:43.909Z,13.03
2017-11-24T16:45:12.793Z,7.00
2017-11-24T16:47:41.647Z,14.57
2017-11-24T16:50:10.523Z,7.07
2017-11-24T16:52:39.422Z,6.33
2017-11-24T16:55:08.288Z,5.63
2017-11-24T16:57:37.185Z,10.90
2017-11-24T17:00:06.059Z,7.50
2017-11-24T17:02:33.592Z,8.23
2017-11-24T17:05:01.923Z,5.63
2017-11-24T17:07:29.450Z,6.73
2017-11-24T17:09:56.986Z,8.20
2017-11-24T17:12:25.304Z,8.77
2017-11-24T17:14:52.810Z,9.00
2017-11-24T17:17:20.319Z,6.80
2017-11-24T17:19:48.734Z,6.27
2017-11-24T17:22:16.295Z,5.97
2017-11-24T17:24:43.828Z,6.53
2017-11-24T17:27:11.357Z,6.93
2017-11-24T17:29:39.642Z,7.33
2017-11-24T17:32:07.177Z,8.83
2017-11-24T17:34:35.471Z,6.67
2017-11-24T17:37:03.050Z,11.00
2017-11-24T17:39:30.686Z,5.93
2017-11-24T17:41:58.993Z,8.43
2017-11-24T17:44:26.541Z,7.87
2017-11-24T17:46:54.066Z,6.93
2017-11-24T17:49:21.631Z,9.93
2017-11-24T17:51:49.191Z,9.83
2017-11-24T17:54:16.748Z,6.87
2017-11-24T17:56:44.255Z,6.50
2017-11-24T17:59:11.805Z,6.77
2017-11-24T18:01:39.374Z,6.97
2017-11-24T18:04:06.952Z,5.73
2017-11-24T18:06:34.531Z,7.97
2017-11-24T18:09:02.077Z,5.83
2017-11-24T18:11:29.652Z,8.10
2017-11-24T18:13:57.210Z,7.60
2017-11-24T18:16:24.800Z,8.03
2017-11-24T18:18:52.400Z,8.30
2017-11-24T18:21:19.991Z,7.30
2017-11-24T18:23:47.506Z,5.87
2017-11-24T18:26:15.065Z,10.93
2017-11-24T18:28:42.584Z,6.23
2017-11-24T18:31:10.114Z,6.43
2017-11-24T18:33:37.652Z,13.60
2017-11-24T18:36:05.175Z,10.57
2017-11-24T18:38:32.739Z,8.63
2017-11-24T18:41:00.262Z,13.97
2017-11-24T18:43:27.774Z,6.80
2017-11-24T18:45:55.411Z,6.30
2017-11-24T18:48:23.052Z,6.40
2017-11-24T18:50:50.558Z,6.77
2017-11-24T18:53:18.064Z,5.20
2017-11-24T18:55:45.640Z,5.97
2017-11-24T18:58:13.211Z,7.23
2017-11-24T19:00:41.578Z,4.97
2017-11-24T19:03:09.127Z,5.80
2017-11-24T19:05:36.698Z,6.47
2017-11-24T19:08:04.228Z,8.30
2017-11-24T19:10:31.734Z,8.70
2017-11-24T19:12:59.281Z,6.80
2017-11-24T19:15:26.805Z,7.73
2017-11-24T19:17:54.328Z,9.20
2017-11-24T19:20:21.898Z,26.37
2017-11-24T19:22:49.435Z,51.63
2017-11-24T19:25:17.064Z,24.20
2017-11-24T19:27:44.893Z,10.30
2017-11-24T19:30:13.203Z,35.53
2017-11-24T19:32:40.790Z,29.37
2017-11-24T19:35:09.873Z,13.00
2017-11-24T19:37:38.804Z,9.63
2017-11-24T19:40:08.125Z,14.60
2017-11-24T19:42:36.996Z,17.27
2017-11-24T19:45:06.250Z,10.30
2017-11-24T19:47:35.142Z,13.13
2017-11-24T19:50:04.015Z,16.50
2017-11-24T19:52:32.932Z,13.13
2017-11-24T19:55:01.822Z,9.57
2017-11-24T19:57:30.959Z,9.70
2017-11-24T19:59:59.887Z,7.57
2017-11-24T20:02:28.773Z,6.60
2017-11-24T20:04:57.692Z,8.53
2017-11-24T20:07:26.585Z,7.83
2017-11-24T20:09:55.515Z,8.07
2017-11-24T20:12:24.637Z,16.43
2017-11-24T20:14:53.517Z,9.20
2017-11-24T20:17:22.560Z,9.37
2017-11-24T20:19:51.459Z,13.27
2017-11-24T20:22:20.323Z,10.20
2017-11-24T20:24:49.247Z,9.80
2017-11-24T20:27:18.154Z,9.37
2017-11-24T20:29:47.419Z,11.07
2017-11-24T20:32:16.366Z,10.10
2017-11-24T20:34:45.240Z,11.80
2017-11-24T20:37:14.290Z,8.53
2017-11-24T20:39:43.259Z,9.83
2017-11-24T20:42:12.187Z,7.17
2017-11-24T20:44:41.307Z,7.07
2017-11-24T20:47:10.383Z,5.47
2017-11-24T20:49:39.269Z,6.00
2017-11-24T20:52:08.170Z,6.87
2017-11-24T20:54:37.246Z,6.50
2017-11-24T20:57:06.233Z,9.23
2017-11-24T20:59:35.438Z,7.70
2017-11-24T21:02:04.422Z,6.83
2017-11-24T21:04:33.881Z,5.37
2017-11-24T21:07:02.753Z,6.30
2017-11-24T21:09:31.801Z,5.30
2017-11-24T21:12:00.774Z,7.30
2017-11-24T21:14:30.074Z,6.70
2017-11-24T21:16:58.969Z,6.90
2017-11-24T21:19:28.013Z,7.30
2017-11-24T21:21:56.936Z,6.07
2017-11-24T21:24:25.846Z,7.73
2017-11-24T21:26:55.082Z,7.57
2017-11-24T21:29:24.058Z,7.33
2017-11-24T21:31:52.957Z,7.20
2017-11-24T21:34:21.877Z,9.80
2017-11-24T21:36:51.136Z,6.50
2017-11-24T21:39:20.000Z,5.83
2017-11-24T21:41:49.125Z,10.87
2017-11-24T21:44:18.107Z,15.63
2017-11-24T21:46:47.067Z,7.60
2017-11-24T21:49:15.928Z,6.10
2017-11-24T21:51:44.941Z,5.70
2017-11-24T21:54:13.855Z,5.43
2017-11-24T21:56:42.960Z,7.00
2017-11-24T21:59:12.200Z,7.07
2017-11-24T22:01:41.123Z,6.10
2017-11-24T22:04:10.045Z,4.27
2017-11-24T22:06:38.930Z,4.20
2017-11-24T22:09:07.886Z,6.40
2017-11-24T22:11:36.776Z,6.77
2017-11-24T22:14:06.618Z,6.57
2017-11-24T22:16:35.536Z,7.87
2017-11-24T22:19:04.417Z,7.50
2017-11-24T22:21:33.350Z,6.87
2017-11-24T22:24:02.265Z,6.10
2017-11-24T22:26:31.182Z,6.67
2017-11-24T22:29:00.034Z,3.67
2017-11-24T22:31:28.917Z,3.63
2017-11-24T22:33:57.765Z,4.53
2017-11-24T22:36:26.649Z,2.97
2017-11-24T22:38:55.507Z,5.07
2017-11-24T22:41:24.389Z,3.53
2017-11-24T22:43:53.277Z,3.07
2017-11-24T22:46:22.153Z,4.37
2017-11-24T22:48:51.053Z,3.83
2017-11-24T22:51:19.939Z,5.57
2017-11-24T22:53:48.805Z,5.23
2017-11-24T22:56:17.705Z,4.63
2017-11-24T22:58:46.600Z,3.40
2017-11-24T23:01:15.458Z,4.07
2017-11-24T23:03:44.320Z,6.57
2017-11-24T23:06:13.206Z,3.30
2017-11-24T23:08:42.060Z,4.70
2017-11-24T23:11:10.922Z,5.23
2017-11-24T23:13:39.880Z,3.87
2017-11-24T23:16:08.760Z,4.73
2017-11-24T23:18:37.621Z,4.00
2017-11-24T23:21:06.513Z,3.23
2017-11-24T23:23:35.374Z,3.73
2017-11-24T23:26:04.262Z,6.03
2017-11-24T23:28:33.150Z,4.10
2017-11-24T23:31:02.010Z,3.80
2017-11-24T23:33:30.898Z,2.90
2017-11-24T23:35:59.762Z,3.77
2017-11-24T23:38:28.620Z,5.40
2017-11-24T23:40:57.493Z,4.83
2017-11-24T23:43:26.357Z,4.03
2017-11-24T23:45:55.250Z,4.80
2017-11-24T23:48:24.103Z,4.43
2017-11-24T23:50:52.957Z,3.90
2017-11-24T23:53:21.842Z,4.10
2017-11-24T23:55:50.694Z,5.80
2017-11-24T23:58:19.574Z,5.93
